createdAt,value
2017-01-07T00:00:48.533Z,-5.79
2017-01-07T00:02:01.977Z,-5.78
2017-01-07T00:03:15.544Z,-5.79
2017-01-07T00:04:29.046Z,-5.8
2017-01-07T00:05:42.480Z,-5.78
2017-01-07T00:06:55.944Z,-5.77
2017-01-07T00:08:09.422Z,-5.77
2017-01-07T00:09:24.539Z,-5.77
2017-01-07T00:10:37.953Z,-5.8
2017-01-07T00:11:51.816Z,-5.82
2017-01-07T00:13:05.289Z,-5.85
2017-01-07T00:14:19.273Z,-5.87
2017-01-07T00:15:32.702Z,-5.85
2017-01-07T00:16:52.494Z,-5.86
2017-01-07T00:18:05.951Z,-5.88
2017-01-07T00:19:19.444Z,-5.9
2017-01-07T00:20:32.890Z,-5.91
2017-01-07T00:21:46.889Z,-5.92
2017-01-07T00:23:02.685Z,-5.93
2017-01-07T00:24:16.112Z,-5.95
2017-01-07T00:25:29.695Z,-5.97
2017-01-07T00:26:43.570Z,-6.01
2017-01-07T00:27:57.045Z,-6.03
2017-01-07T00:29:10.472Z,-6.05
2017-01-07T00:30:24.024Z,-6.05
2017-01-07T00:31:37.456Z,-6.06
2017-01-07T00:32:50.953Z,-6.06
2017-01-07T00:34:04.355Z,-6.11
2017-01-07T00:35:17.989Z,-6.13
2017-01-07T00:36:31.380Z,-6.16
2017-01-07T00:37:44.831Z,-6.15
2017-01-07T00:38:58.256Z,-6.12
2017-01-07T00:40:11.713Z,-6.09
2017-01-07T00:41:25.238Z,-6.04
2017-01-07T00:42:38.873Z,-6.01
2017-01-07T00:43:52.452Z,-5.98
2017-01-07T00:45:05.957Z,-5.98
2017-01-07T00:46:19.452Z,-5.98
2017-01-07T00:47:32.878Z,-5.97
2017-01-07T00:48:46.331Z,-5.96
2017-01-07T00:49:59.876Z,-5.96
2017-01-07T00:51:13.431Z,-5.95
2017-01-07T00:52:26.966Z,-5.94
2017-01-07T00:53:40.408Z,-5.94
2017-01-07T00:54:53.810Z,-5.92
2017-01-07T00:56:07.213Z,-5.91
2017-01-07T00:57:20.752Z,-5.92
2017-01-07T00:58:34.215Z,-5.92
2017-01-07T00:59:47.669Z,-5.9
2017-01-07T01:01:01.129Z,-5.89
2017-01-07T01:02:14.665Z,-5.91
2017-01-07T01:03:28.535Z,-5.92
2017-01-07T01:04:41.963Z,-5.93
2017-01-07T01:05:55.466Z,-5.94
2017-01-07T01:07:09.049Z,-5.97
2017-01-07T01:08:22.467Z,-6
2017-01-07T01:09:35.875Z,-6.01
2017-01-07T01:10:49.308Z,-6.02
2017-01-07T01:12:02.949Z,-6.04
2017-01-07T01:13:16.558Z,-6.02
2017-01-07T01:14:29.982Z,-6.01
2017-01-07T01:15:43.409Z,-5.99
2017-01-07T01:16:56.858Z,-5.97
2017-01-07T01:18:10.367Z,-5.96
2017-01-07T01:19:24.428Z,-5.96
2017-01-07T01:20:38.866Z,-5.94
2017-01-07T01:21:52.274Z,-5.93
2017-01-07T01:23:05.809Z,-5.91
2017-01-07T01:24:19.276Z,-5.89
2017-01-07T01:25:32.783Z,-5.86
2017-01-07T01:26:46.239Z,-5.84
2017-01-07T01:27:59.632Z,-5.81
2017-01-07T01:29:13.139Z,-5.77
2017-01-07T01:30:26.572Z,-5.74
2017-01-07T01:31:39.988Z,-5.7
2017-01-07T01:32:53.563Z,-5.68
2017-01-07T01:34:07.107Z,-5.67
2017-01-07T01:35:20.967Z,-5.68
2017-01-07T01:36:34.408Z,-5.68
2017-01-07T01:37:47.845Z,-5.67
2017-01-07T01:39:03.761Z,-5.66
2017-01-07T01:40:17.304Z,-5.66
2017-01-07T01:41:30.753Z,-5.64
2017-01-07T01:42:44.210Z,-5.65
2017-01-07T01:43:58.070Z,-5.63
2017-01-07T01:45:11.557Z,-5.63
2017-01-07T01:46:25.088Z,-5.63
2017-01-07T01:47:38.510Z,-5.65
2017-01-07T01:48:51.931Z,-5.65
2017-01-07T01:50:05.445Z,-5.63
2017-01-07T01:51:18.845Z,-5.62
2017-01-07T01:52:32.293Z,-5.61
2017-01-07T01:53:45.876Z,-5.59
2017-01-07T01:54:59.315Z,-5.62
2017-01-07T01:56:12.779Z,-5.63
2017-01-07T01:57:26.228Z,-5.65
2017-01-07T01:58:39.645Z,-5.67
2017-01-07T01:59:53.095Z,-5.66
2017-01-07T02:01:06.740Z,-5.67
2017-01-07T02:02:20.225Z,-5.68
2017-01-07T02:03:33.628Z,-5.69
2017-01-07T02:04:47.069Z,-5.71
2017-01-07T02:06:01.038Z,-5.72
2017-01-07T02:07:14.458Z,-5.73
2017-01-07T02:08:28.100Z,-5.74
2017-01-07T02:09:41.523Z,-5.74
2017-01-07T02:10:55.168Z,-5.76
2017-01-07T02:12:08.620Z,-5.78
2017-01-07T02:13:22.069Z,-5.84
2017-01-07T02:14:35.494Z,-5.89
2017-01-07T02:15:49.345Z,-5.96
2017-01-07T02:17:02.875Z,-6.01
2017-01-07T02:18:16.292Z,-6.08
2017-01-07T02:19:29.725Z,-6.14
2017-01-07T02:20:43.148Z,-6.2
2017-01-07T02:21:56.793Z,-6.23
2017-01-07T02:23:10.722Z,-6.28
2017-01-07T02:24:24.154Z,-6.3
2017-01-07T02:25:37.613Z,-6.31
2017-01-07T02:26:51.133Z,-6.3
2017-01-07T02:28:04.546Z,-6.3
2017-01-07T02:29:18.084Z,-6.29
2017-01-07T02:30:31.705Z,-6.3
2017-01-07T02:31:45.104Z,-6.31
2017-01-07T02:32:58.613Z,-6.33
2017-01-07T02:34:12.035Z,-6.34
2017-01-07T02:35:26.481Z,-6.37
2017-01-07T02:36:39.921Z,-6.37
2017-01-07T02:37:53.492Z,-6.38
2017-01-07T02:39:06.897Z,-6.4
2017-01-07T02:40:20.317Z,-6.4
2017-01-07T02:41:33.873Z,-6.43
2017-01-07T02:42:47.532Z,-6.43
2017-01-07T02:44:01.035Z,-6.46
2017-01-07T02:45:14.446Z,-6.48
2017-01-07T02:46:27.870Z,-6.49
2017-01-07T02:47:41.317Z,-6.48
2017-01-07T02:48:55.255Z,-6.46
2017-01-07T02:50:08.670Z,-6.45
2017-01-07T02:51:22.217Z,-6.45
2017-01-07T02:52:35.651Z,-6.45
2017-01-07T02:53:50.344Z,-6.44
2017-01-07T02:55:05.926Z,-6.41
2017-01-07T02:56:19.390Z,-6.38
2017-01-07T02:57:32.916Z,-6.37
2017-01-07T02:58:46.371Z,-6.36
2017-01-07T02:59:59.788Z,-6.36
2017-01-07T03:01:13.618Z,-6.34
2017-01-07T03:02:27.060Z,-6.34
2017-01-07T03:03:40.562Z,-6.36
2017-01-07T03:04:54.213Z,-6.41
2017-01-07T03:06:07.621Z,-6.45
2017-01-07T03:07:21.067Z,-6.5
2017-01-07T03:08:34.502Z,-6.52
2017-01-07T03:09:47.980Z,-6.55
2017-01-07T03:11:01.441Z,-6.59
2017-01-07T03:12:14.890Z,-6.6
2017-01-07T03:13:28.315Z,-6.63
2017-01-07T03:14:41.806Z,-6.62
2017-01-07T03:15:55.205Z,-6.62
2017-01-07T03:17:08.634Z,-6.63
2017-01-07T03:18:22.138Z,-6.63
2017-01-07T03:19:35.808Z,-6.64
2017-01-07T03:20:49.355Z,-6.64
2017-01-07T03:22:02.747Z,-6.63
2017-01-07T03:23:16.171Z,-6.65
2017-01-07T03:24:29.560Z,-6.66
2017-01-07T03:25:43.079Z,-6.69
2017-01-07T03:26:56.499Z,-6.69
2017-01-07T03:28:09.911Z,-6.69
2017-01-07T03:29:23.345Z,-6.68
2017-01-07T03:30:36.842Z,-6.67
2017-01-07T03:31:50.230Z,-6.66
2017-01-07T03:33:03.609Z,-6.63
2017-01-07T03:34:17.043Z,-6.61
2017-01-07T03:35:30.472Z,-6.57
2017-01-07T03:36:44.005Z,-6.54
2017-01-07T03:37:57.425Z,-6.52
2017-01-07T03:39:11.758Z,-6.49
2017-01-07T03:40:25.617Z,-6.48
2017-01-07T03:41:39.450Z,-6.46
2017-01-07T03:42:52.913Z,-6.42
2017-01-07T03:44:06.382Z,-6.41
2017-01-07T03:45:19.809Z,-6.4
2017-01-07T03:46:33.675Z,-6.38
2017-01-07T03:47:47.271Z,-6.39
2017-01-07T03:49:00.963Z,-6.38
2017-01-07T03:50:14.814Z,-6.37
2017-01-07T03:51:28.237Z,-6.36
2017-01-07T03:52:41.796Z,-6.34
2017-01-07T03:53:55.225Z,-6.3
2017-01-07T03:55:09.061Z,-6.24
2017-01-07T03:56:22.592Z,-6.21
2017-01-07T03:57:36.175Z,-6.13
2017-01-07T03:58:49.658Z,-6.07
2017-01-07T04:00:03.078Z,-6.03
2017-01-07T04:01:16.539Z,-6
2017-01-07T04:02:30.167Z,-5.98
2017-01-07T04:03:43.773Z,-5.96
2017-01-07T04:04:57.229Z,-5.94
2017-01-07T04:06:10.679Z,-5.91
2017-01-07T04:07:24.126Z,-5.87
2017-01-07T04:08:37.664Z,-5.86
2017-01-07T04:09:51.135Z,-5.87
2017-01-07T04:11:06.965Z,-5.88
2017-01-07T04:12:20.401Z,-5.89
2017-01-07T04:13:33.903Z,-5.91
2017-01-07T04:14:47.328Z,-5.91
2017-01-07T04:16:00.835Z,-5.9
2017-01-07T04:17:14.243Z,-5.88
2017-01-07T04:18:27.869Z,-5.88
2017-01-07T04:19:41.303Z,-5.89
2017-01-07T04:20:54.701Z,-5.9
2017-01-07T04:22:08.132Z,-5.9
2017-01-07T04:23:21.685Z,-5.87
2017-01-07T04:24:35.249Z,-5.81
2017-01-07T04:25:48.796Z,-5.74
2017-01-07T04:27:02.254Z,-5.67
2017-01-07T04:28:15.681Z,-5.6
2017-01-07T04:29:29.236Z,-5.54
2017-01-07T04:30:42.680Z,-5.47
2017-01-07T04:31:56.155Z,-5.4
2017-01-07T04:33:10.017Z,-5.33
2017-01-07T04:34:23.522Z,-5.27
2017-01-07T04:35:36.933Z,-5.2
2017-01-07T04:36:50.365Z,-5.16
2017-01-07T04:38:03.814Z,-5.09
2017-01-07T04:39:17.261Z,-5.06
2017-01-07T04:40:30.948Z,-5.07
2017-01-07T04:41:44.776Z,-5.07
2017-01-07T04:42:58.214Z,-5.08
2017-01-07T04:44:11.715Z,-5.07
2017-01-07T04:45:25.591Z,-5.08
2017-01-07T04:46:39.048Z,-5.07
2017-01-07T04:47:52.508Z,-5.08
2017-01-07T04:49:05.908Z,-5.06
2017-01-07T04:50:19.451Z,-5.03
2017-01-07T04:51:32.863Z,-4.99
2017-01-07T04:52:46.340Z,-4.94
2017-01-07T04:54:00.254Z,-4.89
2017-01-07T04:55:14.073Z,-4.85
2017-01-07T04:56:28.513Z,-4.83
2017-01-07T04:57:42.031Z,-4.83
2017-01-07T04:58:57.594Z,-4.82
2017-01-07T05:00:12.179Z,-4.81
2017-01-07T05:01:26.553Z,-4.81
2017-01-07T05:02:40.811Z,-4.8
2017-01-07T05:03:56.817Z,-4.8
2017-01-07T05:05:13.355Z,-4.8
2017-01-07T05:06:27.890Z,-4.78
2017-01-07T05:07:42.972Z,-4.75
2017-01-07T05:08:57.427Z,-4.72
2017-01-07T05:10:11.738Z,-4.7
2017-01-07T05:11:25.188Z,-4.68
2017-01-07T05:12:38.620Z,-4.65
2017-01-07T05:13:52.568Z,-4.63
2017-01-07T05:15:06.016Z,-4.64
2017-01-07T05:16:19.556Z,-4.66
2017-01-07T05:17:33.082Z,-4.7
2017-01-07T05:18:46.464Z,-4.74
2017-01-07T05:19:59.864Z,-4.77
2017-01-07T05:21:13.313Z,-4.8
2017-01-07T05:22:27.220Z,-4.82
2017-01-07T05:23:40.968Z,-4.84
2017-01-07T05:24:54.370Z,-4.84
2017-01-07T05:26:07.789Z,-4.81
2017-01-07T05:27:23.419Z,-4.78
2017-01-07T05:28:36.856Z,-4.75
2017-01-07T05:29:50.276Z,-4.72
2017-01-07T05:31:03.709Z,-4.75
2017-01-07T05:32:17.249Z,-4.75
2017-01-07T05:33:30.671Z,-4.74
2017-01-07T05:34:44.095Z,-4.73
2017-01-07T05:35:57.505Z,-4.71
2017-01-07T05:37:10.956Z,-4.68
2017-01-07T05:38:24.645Z,-4.65
2017-01-07T05:39:38.114Z,-4.61
2017-01-07T05:40:51.548Z,-4.6
2017-01-07T05:42:04.948Z,-4.58
2017-01-07T05:43:18.850Z,-4.56
2017-01-07T05:44:32.337Z,-4.54
2017-01-07T05:45:45.878Z,-4.56
2017-01-07T05:46:59.327Z,-4.57
2017-01-07T05:48:12.866Z,-4.59
2017-01-07T05:49:26.316Z,-4.6
2017-01-07T05:50:39.765Z,-4.6
2017-01-07T05:51:53.296Z,-4.57
2017-01-07T05:53:06.822Z,-4.54
2017-01-07T05:54:20.400Z,-4.5
2017-01-07T05:55:33.867Z,-4.49
2017-01-07T05:56:47.989Z,-4.48
2017-01-07T05:58:01.397Z,-4.47
2017-01-07T05:59:15.063Z,-4.45
2017-01-07T06:00:28.473Z,-4.43
2017-01-07T06:01:41.921Z,-4.43
2017-01-07T06:02:55.741Z,-4.43
2017-01-07T06:04:10.470Z,-4.43
2017-01-07T06:05:23.868Z,-4.45
2017-01-07T06:06:38.018Z,-4.48
2017-01-07T06:07:51.442Z,-4.48
2017-01-07T06:09:04.880Z,-4.47
2017-01-07T06:10:18.406Z,-4.45
2017-01-07T06:11:31.872Z,-4.43
2017-01-07T06:12:45.318Z,-4.42
2017-01-07T06:13:58.703Z,-4.42
2017-01-07T06:15:13.474Z,-4.42
2017-01-07T06:16:26.861Z,-4.42
2017-01-07T06:17:40.287Z,-4.44
2017-01-07T06:18:53.718Z,-4.48
2017-01-07T06:20:07.350Z,-4.55
2017-01-07T06:21:20.773Z,-4.6
2017-01-07T06:22:34.196Z,-4.63
2017-01-07T06:23:47.595Z,-4.65
2017-01-07T06:25:01.012Z,-4.66
2017-01-07T06:26:14.835Z,-4.64
2017-01-07T06:27:28.356Z,-4.62
2017-01-07T06:28:42.023Z,-4.57
2017-01-07T06:29:55.429Z,-4.52
2017-01-07T06:31:08.933Z,-4.48
2017-01-07T06:32:22.338Z,-4.42
2017-01-07T06:33:35.814Z,-4.37
2017-01-07T06:34:49.219Z,-4.33
2017-01-07T06:36:02.899Z,-4.26
2017-01-07T06:37:16.301Z,-4.23
2017-01-07T06:38:29.733Z,-4.16
2017-01-07T06:39:43.144Z,-4.13
2017-01-07T06:40:56.543Z,-4.08
2017-01-07T06:42:29.258Z,-4.04
2017-01-07T06:43:44.869Z,-3.99
2017-01-07T06:44:58.460Z,-3.96
2017-01-07T06:46:12.031Z,-3.94
2017-01-07T06:47:25.544Z,-3.92
2017-01-07T06:48:38.987Z,-3.9
2017-01-07T06:49:52.442Z,-3.92
2017-01-07T06:51:05.879Z,-3.92
2017-01-07T06:52:19.827Z,-3.93
2017-01-07T06:53:34.385Z,-3.94
2017-01-07T06:54:49.345Z,-3.94
2017-01-07T06:56:02.777Z,-3.97
2017-01-07T06:57:16.312Z,-3.98
2017-01-07T06:58:29.804Z,-3.98
2017-01-07T06:59:43.299Z,-3.97
2017-01-07T07:00:56.753Z,-3.94
2017-01-07T07:02:10.497Z,-3.94
2017-01-07T07:03:23.951Z,-3.92
2017-01-07T07:04:37.512Z,-3.91
2017-01-07T07:05:50.911Z,-3.9
2017-01-07T07:07:04.398Z,-3.87
2017-01-07T07:08:17.978Z,-3.88
2017-01-07T07:09:31.406Z,-3.89
2017-01-07T07:10:45.031Z,-3.91
2017-01-07T07:11:58.556Z,-3.93
2017-01-07T07:13:13.300Z,-3.95
2017-01-07T07:14:26.823Z,-3.98
2017-01-07T07:15:40.382Z,-3.99
2017-01-07T07:16:53.861Z,-4.01
2017-01-07T07:18:07.481Z,-4
2017-01-07T07:19:21.039Z,-4
2017-01-07T07:20:34.540Z,-3.96
2017-01-07T07:21:48.051Z,-3.93
2017-01-07T07:23:01.471Z,-3.89
2017-01-07T07:24:15.013Z,-3.87
2017-01-07T07:25:28.412Z,-3.83
2017-01-07T07:26:42.002Z,-3.73
2017-01-07T07:27:55.930Z,-3.59
2017-01-07T07:29:10.684Z,-3.47
2017-01-07T07:30:24.174Z,-3.39
2017-01-07T07:31:37.621Z,-3.34
2017-01-07T07:32:52.010Z,-3.31
2017-01-07T07:34:05.902Z,-3.27
2017-01-07T07:35:19.385Z,-3.25
2017-01-07T07:36:33.261Z,-3.25
2017-01-07T07:37:46.745Z,-3.26
2017-01-07T07:39:00.285Z,-3.3
2017-01-07T07:40:13.873Z,-3.35
2017-01-07T07:41:27.436Z,-3.36
2017-01-07T07:42:40.849Z,-3.39
2017-01-07T07:43:54.334Z,-3.38
2017-01-07T07:45:07.951Z,-3.37
2017-01-07T07:46:21.591Z,-3.41
2017-01-07T07:47:35.861Z,-3.43
2017-01-07T07:48:49.879Z,-3.44
2017-01-07T07:50:03.406Z,-3.47
2017-01-07T07:51:17.292Z,-3.46
2017-01-07T07:52:30.930Z,-3.46
2017-01-07T07:53:44.467Z,-3.46
2017-01-07T07:54:57.998Z,-3.46
2017-01-07T07:56:12.800Z,-3.48
2017-01-07T07:57:26.407Z,-3.49
2017-01-07T07:58:39.968Z,-3.49
2017-01-07T07:59:55.924Z,-3.5
2017-01-07T08:01:09.709Z,-3.48
2017-01-07T08:02:23.277Z,-3.46
2017-01-07T08:03:36.772Z,-3.42
2017-01-07T08:04:50.283Z,-3.4
2017-01-07T08:06:03.978Z,-3.39
2017-01-07T08:07:17.445Z,-3.4
2017-01-07T08:08:30.913Z,-3.4
2017-01-07T08:09:44.756Z,-3.36
2017-01-07T08:10:58.225Z,-3.31
2017-01-07T08:12:13.051Z,-3.26
2017-01-07T08:13:26.575Z,-3.23
2017-01-07T08:14:40.195Z,-3.2
2017-01-07T08:15:53.641Z,-3.16
2017-01-07T08:17:07.207Z,-3.11
2017-01-07T08:18:20.758Z,-3.09
2017-01-07T08:19:34.285Z,-3.07
2017-01-07T08:20:47.759Z,-3.02
2017-01-07T08:22:01.316Z,-2.98
2017-01-07T08:23:14.843Z,-2.89
2017-01-07T08:24:28.299Z,-2.81
2017-01-07T08:25:41.825Z,-2.75
2017-01-07T08:26:55.296Z,-2.71
2017-01-07T08:28:08.988Z,-2.68
2017-01-07T08:29:22.687Z,-2.66
2017-01-07T08:30:36.307Z,-2.67
2017-01-07T08:31:49.753Z,-2.66
2017-01-07T08:33:03.471Z,-2.63
2017-01-07T08:34:17.081Z,-2.58
2017-01-07T08:35:31.226Z,-2.55
2017-01-07T08:36:44.634Z,-2.52
2017-01-07T08:37:59.343Z,-2.51
2017-01-07T08:39:12.878Z,-2.49
2017-01-07T08:40:27.146Z,-2.47
2017-01-07T08:41:40.668Z,-2.45
2017-01-07T08:42:54.929Z,-2.44
2017-01-07T08:44:08.632Z,-2.44
2017-01-07T08:45:22.107Z,-2.42
2017-01-07T08:46:35.678Z,-2.42
2017-01-07T08:47:49.609Z,-2.42
2017-01-07T08:49:03.169Z,-2.44
2017-01-07T08:50:16.673Z,-2.43
2017-01-07T08:51:30.114Z,-2.46
2017-01-07T08:52:43.579Z,-2.48
2017-01-07T08:53:57.013Z,-2.47
2017-01-07T08:55:10.615Z,-2.5
2017-01-07T08:56:24.038Z,-2.53
2017-01-07T09:01:26.432Z,-2.55
2017-01-07T09:02:39.838Z,-2.51
2017-01-07T09:03:53.284Z,-2.44
2017-01-07T09:05:06.719Z,-2.4
2017-01-07T09:06:20.573Z,-2.4
2017-01-07T09:07:34.325Z,-2.34
2017-01-07T09:08:47.785Z,-2.33
2017-01-07T09:10:01.198Z,-2.32
2017-01-07T09:11:14.629Z,-2.29
2017-01-07T09:12:28.186Z,-2.28
2017-01-07T09:13:41.615Z,-2.3
2017-01-07T09:14:55.053Z,-2.31
2017-01-07T09:16:08.500Z,-2.32
2017-01-07T09:17:22.035Z,-2.32
2017-01-07T09:18:37.681Z,-2.33
2017-01-07T09:19:51.080Z,-2.31
2017-01-07T09:21:04.626Z,-2.32
2017-01-07T09:22:18.063Z,-2.31
2017-01-07T09:23:31.633Z,-2.3
2017-01-07T09:24:45.096Z,-2.3
2017-01-07T09:25:58.532Z,-2.29
2017-01-07T09:27:12.107Z,-2.29
2017-01-07T09:28:25.646Z,-2.27
2017-01-07T09:29:39.055Z,-2.25
2017-01-07T09:30:52.489Z,-2.24
2017-01-07T09:32:05.895Z,-2.25
2017-01-07T09:33:19.442Z,-2.29
2017-01-07T09:34:32.939Z,-2.29
2017-01-07T09:35:46.370Z,-2.3
2017-01-07T09:36:59.799Z,-2.29
2017-01-07T09:38:13.361Z,-2.27
2017-01-07T09:39:27.074Z,-2.25
2017-01-07T09:40:40.832Z,-2.23
2017-01-07T09:41:54.284Z,-2.17
2017-01-07T09:43:07.733Z,-2.13
2017-01-07T09:44:21.255Z,-2.09
2017-01-07T09:45:35.124Z,-2.03
2017-01-07T09:46:48.582Z,-1.97
2017-01-07T09:48:02.086Z,-1.89
2017-01-07T09:49:15.795Z,-1.83
2017-01-07T09:50:29.301Z,-1.77
2017-01-07T09:51:42.757Z,-1.72
2017-01-07T09:52:56.193Z,-1.72
2017-01-07T09:54:10.246Z,-1.73
2017-01-07T09:55:23.742Z,-1.72
2017-01-07T09:56:37.198Z,-1.73
2017-01-07T09:57:50.617Z,-1.74
2017-01-07T09:59:04.027Z,-1.72
2017-01-07T10:00:17.550Z,-1.7
2017-01-07T10:01:31.158Z,-1.68
2017-01-07T10:02:44.786Z,-1.64
2017-01-07T10:03:59.313Z,-1.6
2017-01-07T10:05:12.896Z,-1.54
2017-01-07T10:06:26.459Z,-1.48
2017-01-07T10:07:40.661Z,-1.45
2017-01-07T10:08:55.388Z,-1.44
2017-01-07T10:10:08.825Z,-1.43
2017-01-07T10:11:22.418Z,-1.41
2017-01-07T10:12:36.926Z,-1.38
2017-01-07T10:13:50.382Z,-1.37
2017-01-07T10:15:03.834Z,-1.34
2017-01-07T10:16:17.434Z,-1.31
2017-01-07T10:17:30.889Z,-1.28
2017-01-07T10:18:44.454Z,-1.28
2017-01-07T10:19:57.920Z,-1.26
2017-01-07T10:21:11.440Z,-1.24
2017-01-07T10:22:24.901Z,-1.24
2017-01-07T10:23:38.389Z,-1.27
2017-01-07T10:24:51.853Z,-1.24
2017-01-07T10:26:05.323Z,-1.21
2017-01-07T10:27:19.001Z,-1.14
2017-01-07T10:28:32.596Z,-1.12
2017-01-07T10:29:46.836Z,-1.17
2017-01-07T10:31:00.270Z,-1.21
2017-01-07T10:32:13.791Z,-1.22
2017-01-07T10:33:27.227Z,-1.23
2017-01-07T10:34:44.762Z,-1.26
2017-01-07T10:35:58.209Z,-1.3
2017-01-07T10:37:11.812Z,-1.31
2017-01-07T10:38:25.242Z,-1.28
2017-01-07T10:39:38.735Z,-1.24
2017-01-07T10:40:52.162Z,-1.2
2017-01-07T10:42:05.654Z,-1.17
2017-01-07T10:43:19.180Z,-1.12
2017-01-07T10:44:32.588Z,-1.06
2017-01-07T10:45:46.001Z,-1.03
2017-01-07T10:46:59.506Z,-1.01
2017-01-07T10:48:13.383Z,-0.98
2017-01-07T10:49:27.248Z,-0.94
2017-01-07T10:50:42.334Z,-0.92
2017-01-07T10:51:55.838Z,-0.9
2017-01-07T10:53:09.394Z,-0.85
2017-01-07T10:54:22.865Z,-0.82
2017-01-07T10:55:36.278Z,-0.82
2017-01-07T10:56:49.713Z,-0.84
2017-01-07T10:58:03.229Z,-0.83
2017-01-07T10:59:16.763Z,-0.8
2017-01-07T11:00:30.193Z,-0.76
2017-01-07T11:01:43.632Z,-0.74
2017-01-07T11:02:57.080Z,-0.7
2017-01-07T11:04:10.904Z,-0.64
2017-01-07T11:05:24.831Z,-0.59
2017-01-07T11:06:38.308Z,-0.52
2017-01-07T11:07:51.737Z,-0.47
2017-01-07T11:09:05.309Z,-0.37
2017-01-07T11:10:18.902Z,-0.33
2017-01-07T11:11:32.344Z,-0.26
2017-01-07T11:12:45.822Z,-0.21
2017-01-07T11:13:59.283Z,-0.25
2017-01-07T11:15:12.836Z,-0.29
2017-01-07T11:16:26.280Z,-0.36
2017-01-07T11:17:39.719Z,-0.41
2017-01-07T11:18:54.430Z,-0.47
2017-01-07T11:20:08.785Z,-0.54
2017-01-07T11:21:22.223Z,-0.59
2017-01-07T11:22:35.684Z,-0.62
2017-01-07T11:23:49.161Z,-0.68
2017-01-07T11:25:02.776Z,-0.7
2017-01-07T11:26:16.205Z,-0.7
2017-01-07T11:27:29.643Z,-0.7
2017-01-07T11:28:43.162Z,-0.72
2017-01-07T11:29:56.649Z,-0.73
2017-01-07T11:31:10.187Z,-0.73
2017-01-07T11:32:23.645Z,-0.68
2017-01-07T11:33:37.076Z,-0.67
2017-01-07T11:34:50.532Z,-0.69
2017-01-07T11:36:04.219Z,-0.66
2017-01-07T11:37:17.681Z,-0.63
2017-01-07T11:38:31.630Z,-0.62
2017-01-07T11:39:45.979Z,-0.61
2017-01-07T11:40:59.596Z,-0.61
2017-01-07T11:42:13.033Z,-0.58
2017-01-07T11:43:26.490Z,-0.55
2017-01-07T11:44:39.975Z,-0.55
2017-01-07T11:45:54.009Z,-0.56
2017-01-07T11:47:07.524Z,-0.52
2017-01-07T11:48:20.989Z,-0.54
2017-01-07T11:49:34.840Z,-0.6
2017-01-07T11:50:50.498Z,-0.67
2017-01-07T11:52:05.314Z,-0.76
2017-01-07T11:53:18.844Z,-0.82
2017-01-07T11:54:32.330Z,-0.81
2017-01-07T11:55:46.054Z,-0.8
2017-01-07T11:57:00.000Z,-0.77
2017-01-07T11:58:13.568Z,-0.74
2017-01-07T11:59:26.996Z,-0.74
2017-01-07T12:00:40.525Z,-0.74
2017-01-07T12:01:54.019Z,-0.72
2017-01-07T12:03:08.773Z,-0.7
2017-01-07T12:04:22.301Z,-0.63
2017-01-07T12:05:35.758Z,-0.56
2017-01-07T12:06:49.237Z,-0.52
2017-01-07T12:08:02.893Z,-0.49
2017-01-07T12:09:16.373Z,-0.47
2017-01-07T12:10:29.836Z,-0.46
2017-01-07T12:11:43.319Z,-0.47
2017-01-07T12:12:57.356Z,-0.44
2017-01-07T12:14:10.908Z,-0.4
2017-01-07T12:15:24.691Z,-0.34
2017-01-07T12:16:38.424Z,-0.31
2017-01-07T12:17:51.920Z,-0.27
2017-01-07T12:19:05.465Z,-0.24
2017-01-07T12:20:19.123Z,-0.22
2017-01-07T12:21:32.587Z,-0.21
2017-01-07T12:22:46.059Z,-0.2
2017-01-07T12:23:59.641Z,-0.2
2017-01-07T12:25:13.434Z,-0.21
2017-01-07T12:26:27.080Z,-0.26
2017-01-07T12:27:40.632Z,-0.28
2017-01-07T12:28:55.625Z,-0.29
2017-01-07T12:30:09.564Z,-0.31
2017-01-07T12:31:23.071Z,-0.32
2017-01-07T12:32:36.523Z,-0.37
2017-01-07T12:33:49.943Z,-0.42
2017-01-07T12:35:03.555Z,-0.47
2017-01-07T12:36:16.991Z,-0.54
2017-01-07T12:37:30.408Z,-0.61
2017-01-07T12:38:43.828Z,-0.64
2017-01-07T12:39:57.428Z,-0.68
2017-01-07T12:41:11.009Z,-0.73
2017-01-07T12:42:24.484Z,-0.74
2017-01-07T12:43:37.914Z,-0.75
2017-01-07T12:44:51.473Z,-0.75
2017-01-07T12:46:04.918Z,-0.71
2017-01-07T12:47:18.381Z,-0.71
2017-01-07T12:48:32.087Z,-0.71
2017-01-07T12:49:45.584Z,-0.74
2017-01-07T12:50:59.149Z,-0.74
2017-01-07T12:52:13.578Z,-0.75
2017-01-07T12:53:31.373Z,-0.78
2017-01-07T12:54:44.843Z,-0.8
2017-01-07T12:55:58.391Z,-0.77
2017-01-07T12:57:12.668Z,-0.75
2017-01-07T12:58:26.130Z,-0.77
2017-01-07T12:59:40.004Z,-0.8
2017-01-07T13:00:53.658Z,-0.81
2017-01-07T13:02:07.140Z,-0.83
2017-01-07T13:03:20.668Z,-0.82
2017-01-07T13:04:34.133Z,-0.81
2017-01-07T13:05:47.683Z,-0.82
2017-01-07T13:07:03.382Z,-0.84
2017-01-07T13:08:16.926Z,-0.83
2017-01-07T13:09:30.850Z,-0.83
2017-01-07T13:10:44.840Z,-0.82
2017-01-07T13:11:58.511Z,-0.81
2017-01-07T13:13:12.559Z,-0.81
2017-01-07T13:14:26.013Z,-0.86
2017-01-07T13:15:39.510Z,-0.9
2017-01-07T13:16:53.160Z,-0.94
2017-01-07T13:18:06.597Z,-0.97
2017-01-07T13:19:20.073Z,-0.97
2017-01-07T13:20:33.858Z,-0.99
2017-01-07T13:21:47.451Z,-1.01
2017-01-07T13:23:00.884Z,-1.03
2017-01-07T13:24:14.332Z,-1.03
2017-01-07T13:25:27.818Z,-1.08
2017-01-07T13:26:41.481Z,-1.11
2017-01-07T13:27:56.201Z,-1.12
2017-01-07T13:29:09.794Z,-1.08
2017-01-07T13:30:23.560Z,-1.03
2017-01-07T13:31:37.132Z,-0.95
2017-01-07T13:32:51.889Z,-0.89
2017-01-07T13:34:05.420Z,-0.88
2017-01-07T13:35:19.281Z,-0.86
2017-01-07T13:36:33.016Z,-0.89
2017-01-07T13:37:46.840Z,-0.88
2017-01-07T13:39:00.425Z,-0.89
2017-01-07T13:40:13.873Z,-0.92
2017-01-07T13:41:28.156Z,-0.93
2017-01-07T13:42:41.645Z,-0.94
2017-01-07T13:43:55.242Z,-0.98
2017-01-07T13:45:08.952Z,-1.04
2017-01-07T13:46:23.260Z,-1.06
2017-01-07T13:47:36.673Z,-1.07
2017-01-07T13:48:50.210Z,-1.05
2017-01-07T13:50:03.718Z,-1.04
2017-01-07T13:51:17.226Z,-1.06
2017-01-07T13:52:30.811Z,-1.02
2017-01-07T13:53:45.684Z,-1.01
2017-01-07T13:54:59.189Z,-0.99
2017-01-07T13:56:12.617Z,-0.97
2017-01-07T13:57:26.228Z,-0.94
2017-01-07T13:58:39.770Z,-0.91
2017-01-07T13:59:53.638Z,-0.89
2017-01-07T14:01:07.094Z,-0.89
2017-01-07T14:02:20.568Z,-0.92
2017-01-07T14:03:34.082Z,-0.94
2017-01-07T14:04:48.790Z,-0.92
2017-01-07T14:06:02.421Z,-0.91
2017-01-07T14:07:15.911Z,-0.9
2017-01-07T14:08:29.378Z,-0.88
2017-01-07T14:09:42.945Z,-0.84
2017-01-07T14:10:56.405Z,-0.83
2017-01-07T14:12:09.887Z,-0.82
2017-01-07T14:13:23.669Z,-0.78
2017-01-07T14:14:37.312Z,-0.75
2017-01-07T14:15:50.855Z,-0.74
2017-01-07T14:17:04.317Z,-0.73
2017-01-07T14:18:17.797Z,-0.71
2017-01-07T14:19:31.245Z,-0.66
2017-01-07T14:20:45.083Z,-0.63
2017-01-07T14:21:58.754Z,-0.59
2017-01-07T14:23:14.437Z,-0.54
2017-01-07T14:24:27.898Z,-0.52
2017-01-07T14:25:41.600Z,-0.52
2017-01-07T14:26:55.419Z,-0.52
2017-01-07T14:28:09.040Z,-0.51
2017-01-07T14:29:23.686Z,-0.51
2017-01-07T14:30:37.332Z,-0.5
2017-01-07T14:31:51.220Z,-0.47
2017-01-07T14:33:04.713Z,-0.45
2017-01-07T14:34:18.230Z,-0.44
2017-01-07T14:35:32.095Z,-0.43
2017-01-07T14:36:45.898Z,-0.48
2017-01-07T14:37:59.987Z,-0.51
2017-01-07T14:39:14.138Z,-0.53
2017-01-07T14:40:27.565Z,-0.54
2017-01-07T14:41:41.264Z,-0.56
2017-01-07T14:42:54.816Z,-0.55
2017-01-07T14:44:08.211Z,-0.57
2017-01-07T14:45:21.722Z,-0.59
2017-01-07T14:46:36.251Z,-0.54
2017-01-07T14:47:50.830Z,-0.53
2017-01-07T14:49:04.296Z,-0.51
2017-01-07T14:50:17.900Z,-0.52
2017-01-07T14:51:31.506Z,-0.52
2017-01-07T14:52:47.152Z,-0.52
2017-01-07T14:54:05.223Z,-0.57
2017-01-07T14:55:18.809Z,-0.59
2017-01-07T14:56:32.254Z,-0.59
2017-01-07T14:57:45.984Z,-0.61
2017-01-07T14:59:00.468Z,-0.63
2017-01-07T15:00:14.473Z,-0.62
2017-01-07T15:01:28.016Z,-0.62
2017-01-07T15:02:42.080Z,-0.64
2017-01-07T15:03:55.691Z,-0.6
2017-01-07T15:05:09.238Z,-0.62
2017-01-07T15:06:22.660Z,-0.63
2017-01-07T15:07:36.108Z,-0.65
2017-01-07T15:08:50.850Z,-0.68
2017-01-07T15:10:04.678Z,-0.74
2017-01-07T15:11:18.203Z,-0.8
2017-01-07T15:12:31.747Z,-0.86
2017-01-07T15:13:45.271Z,-0.87
2017-01-07T15:14:58.795Z,-0.85
2017-01-07T15:16:12.381Z,-0.89
2017-01-07T15:17:26.203Z,-0.91
2017-01-07T15:18:39.788Z,-0.91
2017-01-07T15:19:53.307Z,-0.91
2017-01-07T15:21:08.915Z,-0.91
2017-01-07T15:22:22.680Z,-0.91
2017-01-07T15:23:36.645Z,-0.91
2017-01-07T15:24:50.141Z,-0.92
2017-01-07T15:26:03.653Z,-0.91
2017-01-07T15:27:17.092Z,-0.93
2017-01-07T15:28:30.599Z,-0.97
2017-01-07T15:29:44.282Z,-0.99
2017-01-07T15:30:58.027Z,-1.01
2017-01-07T15:32:11.477Z,-1.05
2017-01-07T15:33:24.998Z,-1.05
2017-01-07T15:34:38.573Z,-1.09
2017-01-07T15:35:52.045Z,-1.09
2017-01-07T15:37:05.581Z,-1.09
2017-01-07T15:38:19.412Z,-1.06
2017-01-07T15:39:35.647Z,-1.04
2017-01-07T15:40:49.666Z,-1.07
2017-01-07T15:42:03.130Z,-1.12
2017-01-07T15:43:17.006Z,-1.17
2017-01-07T15:44:30.601Z,-1.18
2017-01-07T15:45:44.665Z,-1.17
2017-01-07T15:46:58.272Z,-1.17
2017-01-07T15:48:11.845Z,-1.17
2017-01-07T15:49:25.448Z,-1.18
2017-01-07T15:50:39.314Z,-1.18
2017-01-07T15:51:52.892Z,-1.17
2017-01-07T15:53:06.311Z,-1.15
2017-01-07T15:54:20.029Z,-1.18
2017-01-07T15:55:33.537Z,-1.2
2017-01-07T15:56:47.188Z,-1.22